Time;durP1;ratioP1;P1;durP2;ratioP2;P2;SDS_P1;SDS_P2;PMS_P1;PMS_P2;Temp;Humidity;BMP_temperature;BMP_pressure;BME280_temperature;BME280_humidity;BME280_pressure;Samples;Min_cycle;Max_cycle;Signal;HPM_P1;HPM_P2
2023/10/30 00:04:09;;;;;;;9.1;4.6;;;;;;;8.82;87.7;;;;;
2023/10/30 00:15:09;;;;;;;9.1;4.6;;;;;;;8.66;87.83;;;;;
2023/10/30 00:25:09;;;;;;;4.9;2.8;;;;;;;8.61;87.5;;;;;
2023/10/30 00:36:09;;;;;;;4.9;2.8;;;;;;;8.41;87.64;;;;;
2023/10/30 00:46:09;;;;;;;4.9;2.8;;;;;;;8.43;88.65;;;;;
2023/10/30 00:56:09;;;;;;;4.7;2.4;;;;;;;8.43;88.89;;;;;
2023/10/30 01:07:09;;;;;;;4.7;2.4;;;;;;;8.55;88.83;;;;;
2023/10/30 01:17:09;;;;;;;4.7;2.4;;;;;;;8.79;89.61;;;;;
2023/10/30 01:28:09;;;;;;;4.2;1.8;;;;;;;8.88;88.71;;;;;
2023/10/30 01:38:09;;;;;;;4.2;1.8;;;;;;;8.86;88.12;;;;;
2023/10/30 01:49:09;;;;;;;4.2;1.8;;;;;;;8.87;87.51;;;;;
2023/10/30 01:59:09;;;;;;;5.1;2.9;;;;;;;8.8;87.98;;;;;
2023/10/30 02:09:09;;;;;;;5.1;2.9;;;;;;;8.76;88.34;;;;;
2023/10/30 02:20:10;;;;;;;5.1;2.9;;;;;;;8.56;88.96;;;;;
2023/10/30 02:30:11;;;;;;;7;2.8;;;;;;;8.63;88.74;;;;;
2023/10/30 02:41:09;;;;;;;7;2.8;;;;;;;8.5;89.49;;;;;
2023/10/30 02:52:09;;;;;;;7;2.8;;;;;;;8.65;89.71;;;;;
2023/10/30 03:02:09;;;;;;;4.9;2.2;;;;;;;8.63;89.14;;;;;
2023/10/30 03:12:09;;;;;;;4.9;2.2;;;;;;;8.57;88.9;;;;;
2023/10/30 03:22:10;;;;;;;4.9;2.2;;;;;;;8.4;88.08;;;;;
2023/10/30 03:33:09;;;;;;;4.8;2.2;;;;;;;8.16;88.15;;;;;
2023/10/30 03:44:09;;;;;;;4.8;2.2;;;;;;;8.1;88.31;;;;;
2023/10/30 03:54:09;;;;;;;6;3.5;;;;;;;8.12;89.12;;;;;
2023/10/30 04:04:09;;;;;;;6;3.5;;;;;;;8.18;90;;;;;
2023/10/30 04:15:09;;;;;;;6;3.5;;;;;;;8.37;90.19;;;;;
2023/10/30 04:25:09;;;;;;;5.7;2.1;;;;;;;8.36;89.56;;;;;
2023/10/30 04:36:09;;;;;;;5.7;2.1;;;;;;;8.27;89.09;;;;;
2023/10/30 04:47:09;;;;;;;5.7;2.1;;;;;;;8.13;88.81;;;;;
2023/10/30 04:57:09;;;;;;;4.3;1.8;;;;;;;8.1;89.2;;;;;
2023/10/30 05:07:09;;;;;;;4.3;1.8;;;;;;;8.09;89.05;;;;;
2023/10/30 05:18:09;;;;;;;4.3;1.8;;;;;;;8.03;89.45;;;;;
2023/10/30 05:28:09;;;;;;;6.3;3.1;;;;;;;8.02;89.26;;;;;
2023/10/30 05:38:09;;;;;;;6.3;3.1;;;;;;;8.01;89.76;;;;;
2023/10/30 05:49:09;;;;;;;6.3;3.1;;;;;;;8.04;89.04;;;;;
2023/10/30 05:59:09;;;;;;;7.2;4;;;;;;;8.32;90.09;;;;;
2023/10/30 06:09:09;;;;;;;7.2;4;;;;;;;8.48;90.13;;;;;
2023/10/30 06:20:09;;;;;;;7.2;4;;;;;;;8.98;91.12;;;;;
2023/10/30 06:31:09;;;;;;;11.4;5.8;;;;;;;9.45;90.35;;;;;
2023/10/30 06:41:09;;;;;;;11.4;5.8;;;;;;;9.88;90.25;;;;;
2023/10/30 06:52:09;;;;;;;11.4;5.8;;;;;;;10.08;88.57;;;;;
2023/10/30 07:03:09;;;;;;;8.4;4.7;;;;;;;10.37;88.69;;;;;
2023/10/30 07:13:09;;;;;;;8.4;4.7;;;;;;;10.62;88.24;;;;;
2023/10/30 07:24:09;;;;;;;13.7;6.4;;;;;;;10.83;87.36;;;;;
2023/10/30 07:34:09;;;;;;;13.7;6.4;;;;;;;11.14;87.77;;;;;
2023/10/30 07:45:10;;;;;;;13.7;6.4;;;;;;;10.94;86.86;;;;;
2023/10/30 07:55:09;;;;;;;12.9;6.5;;;;;;;11.23;86.6;;;;;
2023/10/30 08:05:09;;;;;;;12.9;6.5;;;;;;;11.48;85.34;;;;;
2023/10/30 08:16:10;;;;;;;12.9;6.5;;;;;;;11.9;86.09;;;;;
2023/10/30 08:26:09;;;;;;;13.9;6.9;;;;;;;12.56;85.9;;;;;
2023/10/30 08:37:09;;;;;;;13.9;6.9;;;;;;;13.28;84.63;;;;;
2023/10/30 08:48:09;;;;;;;13.9;6.9;;;;;;;14.1;83.78;;;;;
2023/10/30 08:58:09;;;;;;;11.3;6.1;;;;;;;14.65;81.11;;;;;
2023/10/30 09:09:11;;;;;;;11.3;6.1;;;;;;;15.26;79.05;;;;;
2023/10/30 09:20:12;;;;;;;11.3;6.1;;;;;;;15.73;77.84;;;;;
2023/10/30 09:30:09;;;;;;;8.6;5.4;;;;;;;16.31;77.11;;;;;
2023/10/30 09:41:09;;;;;;;8.6;5.4;;;;;;;16.46;75.65;;;;;
2023/10/30 09:51:09;;;;;;;8.6;5.4;;;;;;;16.83;76.2;;;;;
2023/10/30 10:01:09;;;;;;;10.7;5.6;;;;;;;17.1;75.52;;;;;
2023/10/30 10:12:09;;;;;;;10.7;5.6;;;;;;;17.67;74.95;;;;;
2023/10/30 10:23:09;;;;;;;11.4;5.5;;;;;;;17.29;71.69;;;;;
2023/10/30 10:33:09;;;;;;;11.4;5.5;;;;;;;17.6;72.21;;;;;
2023/10/30 10:44:09;;;;;;;11.4;5.5;;;;;;;17.98;71.45;;;;;
2023/10/30 10:54:09;;;;;;;9.9;5.4;;;;;;;18.29;70.62;;;;;
2023/10/30 11:05:09;;;;;;;9.9;5.4;;;;;;;18.85;69.87;;;;;
2023/10/30 11:16:09;;;;;;;9.9;5.4;;;;;;;19.21;66.92;;;;;
2023/10/30 11:26:10;;;;;;;11.7;5.6;;;;;;;19.34;67.18;;;;;
2023/10/30 11:36:10;;;;;;;11.7;5.6;;;;;;;19.33;65.57;;;;;
2023/10/30 11:47:11;;;;;;;11.7;5.6;;;;;;;19.53;65.66;;;;;
2023/10/30 11:58:10;;;;;;;8.8;4.5;;;;;;;19.46;64.85;;;;;
2023/10/30 12:08:09;;;;;;;8.8;4.5;;;;;;;19.71;65.1;;;;;
2023/10/30 12:19:09;;;;;;;8.8;4.5;;;;;;;19.7;65.69;;;;;
2023/10/30 12:30:09;;;;;;;8.5;3.6;;;;;;;19.9;65.03;;;;;
2023/10/30 12:41:09;;;;;;;8.5;3.6;;;;;;;20.17;64.91;;;;;
2023/10/30 12:52:09;;;;;;;8.5;3.6;;;;;;;20.43;63.3;;;;;
2023/10/30 13:02:09;;;;;;;8.5;3.9;;;;;;;20.34;62.96;;;;;
2023/10/30 13:12:09;;;;;;;8.5;3.9;;;;;;;20.33;63.59;;;;;
2023/10/30 13:23:09;;;;;;;9.4;4;;;;;;;20.26;64.8;;;;;
2023/10/30 13:34:09;;;;;;;9.4;4;;;;;;;20.24;65.01;;;;;
2023/10/30 13:45:09;;;;;;;9.4;4;;;;;;;20.27;66.1;;;;;
2023/10/30 13:55:09;;;;;;;9.1;5;;;;;;;20.39;67.92;;;;;
2023/10/30 14:06:09;;;;;;;9.1;5;;;;;;;20.42;62.67;;;;;
2023/10/30 14:16:09;;;;;;;9.1;5;;;;;;;20.05;61.89;;;;;
2023/10/30 14:26:09;;;;;;;7.4;2.8;;;;;;;19.52;62;;;;;
2023/10/30 14:36:09;;;;;;;7.4;2.8;;;;;;;18.98;63.14;;;;;
2023/10/30 14:46:09;;;;;;;7.4;2.8;;;;;;;18.42;64.47;;;;;
2023/10/30 14:57:10;;;;;;;6.5;2.4;;;;;;;17.9;65.56;;;;;
2023/10/30 15:07:09;;;;;;;6.5;2.4;;;;;;;17.33;67.31;;;;;
2023/10/30 15:18:09;;;;;;;6.5;2.4;;;;;;;16.62;68.4;;;;;
2023/10/30 15:28:09;;;;;;;5.6;2.1;;;;;;;15.89;70.62;;;;;
2023/10/30 15:39:09;;;;;;;5.6;2.1;;;;;;;15.18;71.7;;;;;
2023/10/30 15:49:09;;;;;;;5.6;2.1;;;;;;;14.58;72.93;;;;;
2023/10/30 16:00:09;;;;;;;8;5.5;;;;;;;14.23;75.34;;;;;
2023/10/30 16:11:09;;;;;;;8;5.5;;;;;;;13.87;76.12;;;;;
2023/10/30 16:21:09;;;;;;;8;5.5;;;;;;;13.62;76.69;;;;;
2023/10/30 16:31:09;;;;;;;13.6;10.4;;;;;;;13.38;77.05;;;;;
2023/10/30 16:42:09;;;;;;;13.6;10.4;;;;;;;13.12;78.37;;;;;
2023/10/30 16:52:09;;;;;;;13.6;10.4;;;;;;;12.87;79.08;;;;;
2023/10/30 17:03:09;;;;;;;12.1;5.7;;;;;;;12.55;80.35;;;;;
2023/10/30 17:13:09;;;;;;;12.1;5.7;;;;;;;12.35;81.25;;;;;
2023/10/30 17:23:09;;;;;;;9.7;5.4;;;;;;;12.15;81.15;;;;;
2023/10/30 17:33:10;;;;;;;9.7;5.4;;;;;;;12.06;82.25;;;;;
2023/10/30 17:43:09;;;;;;;9.7;5.4;;;;;;;11.93;82.74;;;;;
2023/10/30 17:54:11;;;;;;;12.9;5.3;;;;;;;11.66;82.55;;;;;
2023/10/30 18:05:09;;;;;;;12.9;5.3;;;;;;;11.35;84.8;;;;;
2023/10/30 18:15:10;;;;;;;12.9;5.3;;;;;;;11.28;84.93;;;;;
2023/10/30 18:26:10;;;;;;;17;9.6;;;;;;;11.55;86.27;;;;;
2023/10/30 18:37:09;;;;;;;17;9.6;;;;;;;11.72;85.66;;;;;
2023/10/30 18:48:09;;;;;;;17;9.6;;;;;;;11.85;85.28;;;;;
2023/10/30 18:58:10;;;;;;;11.7;5.2;;;;;;;11.85;84.92;;;;;
2023/10/30 19:09:10;;;;;;;11.7;5.2;;;;;;;11.74;84.99;;;;;
2023/10/30 19:19:09;;;;;;;11.7;5.2;;;;;;;11.74;85.44;;;;;
2023/10/30 19:30:09;;;;;;;7.8;4;;;;;;;11.77;85.72;;;;;
2023/10/30 19:41:09;;;;;;;7.8;4;;;;;;;11.93;86.36;;;;;
2023/10/30 19:52:10;;;;;;;7.8;4;;;;;;;11.88;85.65;;;;;
2023/10/30 20:02:09;;;;;;;7.7;3.6;;;;;;;11.74;84.74;;;;;
2023/10/30 20:12:10;;;;;;;7.7;3.6;;;;;;;11.59;85.75;;;;;
2023/10/30 20:23:10;;;;;;;8.7;4;;;;;;;11.7;85.78;;;;;
2023/10/30 20:34:09;;;;;;;8.7;4;;;;;;;11.67;85.3;;;;;
2023/10/30 20:44:10;;;;;;;8.7;4;;;;;;;11.5;85.79;;;;;
2023/10/30 20:54:10;;;;;;;14.6;9.5;;;;;;;11.46;85.93;;;;;
2023/10/30 21:05:11;;;;;;;14.6;9.5;;;;;;;11.46;86.6;;;;;
2023/10/30 21:15:10;;;;;;;14.6;9.5;;;;;;;11.47;86.5;;;;;
2023/10/30 21:26:09;;;;;;;15.6;8.1;;;;;;;11.37;86.66;;;;;
2023/10/30 21:36:09;;;;;;;15.6;8.1;;;;;;;11.38;86.87;;;;;
2023/10/30 21:46:10;;;;;;;15.6;8.1;;;;;;;11.52;87.52;;;;;
2023/10/30 21:57:09;;;;;;;16.5;9.8;;;;;;;11.55;87.62;;;;;
2023/10/30 22:07:09;;;;;;;16.5;9.8;;;;;;;11.63;87.31;;;;;
2023/10/30 22:17:09;;;;;;;16.5;9.8;;;;;;;11.69;87.25;;;;;
2023/10/30 22:27:09;;;;;;;11.7;7.2;;;;;;;11.43;87.74;;;;;
2023/10/30 22:37:09;;;;;;;11.7;7.2;;;;;;;11.58;88.44;;;;;
2023/10/30 22:48:10;;;;;;;11.7;7.2;;;;;;;11.96;88.54;;;;;
2023/10/30 22:58:10;;;;;;;11.9;4.5;;;;;;;12.2;87.88;;;;;
2023/10/30 23:09:10;;;;;;;11.9;4.5;;;;;;;12.14;87.15;;;;;
2023/10/30 23:20:10;;;;;;;11.9;4.5;;;;;;;11.82;86.45;;;;;
2023/10/30 23:30:10;;;;;;;9.1;4.8;;;;;;;11.93;86.4;;;;;
2023/10/30 23:40:10;;;;;;;9.1;4.8;;;;;;;12.22;85.5;;;;;
2023/10/30 23:50:10;;;;;;;9.1;4.8;;;;;;;12.55;84.14;;;;;
